Terminal Aerodrome Forecast
Issued by NWS

Home | Current Version | Previous Version | Graphics & Text | Print | Product List | Glossary On
Versions: 1 2 3 4 5 6 7 8 9 10 11 12 13 14 15 16 17 18 19 20 21 22
688
FTUS43 KICT 230530
TAFRSL
TAF
KRSL 230530Z 2306/2406 VRB06KT 2SM BR OVC003
      TEMPO 2309/2313 1/2SM FG OVC002
     FM231300 35005KT 3/4SM BR BKN008
     FM231700 02006KT P6SM SCT040
     FM232000 07008KT P6SM FEW060
     FM240500 08009KT P6SM BKN015=

USA.gov is the U.S. government's official web portal to all federal, state and local government web resources and services.